sensor_id;sensor_type;location;lat;lon;timestamp;P1;durP1;ratioP1;P2;durP2;ratioP2
6145;SDS011;3104;50.348;7.620;2022-11-20T00:01:06;19.47;;;13.20;;
6145;SDS011;3104;50.348;7.620;2022-11-20T00:03:37;17.47;;;12.57;;
6145;SDS011;3104;50.348;7.620;2022-11-20T00:06:06;19.77;;;12.90;;
6145;SDS011;3104;50.348;7.620;2022-11-20T00:08:34;16.40;;;12.10;;
6145;SDS011;3104;50.348;7.620;2022-11-20T00:11:04;20.83;;;14.03;;
6145;SDS011;3104;50.348;7.620;2022-11-20T00:13:34;20.80;;;13.40;;
6145;SDS011;3104;50.348;7.620;2022-11-20T00:16:00;18.50;;;13.50;;
6145;SDS011;3104;50.348;7.620;2022-11-20T00:18:27;17.80;;;12.60;;
6145;SDS011;3104;50.348;7.620;2022-11-20T00:20:53;17.23;;;13.00;;
6145;SDS011;3104;50.348;7.620;2022-11-20T00:23:19;20.07;;;12.40;;
6145;SDS011;3104;50.348;7.620;2022-11-20T00:25:45;17.67;;;13.53;;
6145;SDS011;3104;50.348;7.620;2022-11-20T00:28:10;17.10;;;12.80;;
6145;SDS011;3104;50.348;7.620;2022-11-20T00:30:36;19.10;;;15.03;;
6145;SDS011;3104;50.348;7.620;2022-11-20T00:33:02;20.63;;;14.10;;
6145;SDS011;3104;50.348;7.620;2022-11-20T00:35:27;19.13;;;12.40;;
6145;SDS011;3104;50.348;7.620;2022-11-20T00:37:53;21.60;;;13.23;;
6145;SDS011;3104;50.348;7.620;2022-11-20T00:40:18;19.27;;;14.03;;
6145;SDS011;3104;50.348;7.620;2022-11-20T00:42:44;17.90;;;11.87;;
6145;SDS011;3104;50.348;7.620;2022-11-20T00:45:10;20.33;;;13.00;;
6145;SDS011;3104;50.348;7.620;2022-11-20T00:47:35;19.90;;;13.13;;
6145;SDS011;3104;50.348;7.620;2022-11-20T00:50:01;21.13;;;14.00;;
6145;SDS011;3104;50.348;7.620;2022-11-20T00:52:26;20.13;;;12.93;;
6145;SDS011;3104;50.348;7.620;2022-11-20T00:54:52;20.53;;;13.47;;
6145;SDS011;3104;50.348;7.620;2022-11-20T00:57:17;22.07;;;13.77;;
6145;SDS011;3104;50.348;7.620;2022-11-20T00:59:43;17.87;;;14.10;;
6145;SDS011;3104;50.348;7.620;2022-11-20T01:02:08;22.63;;;14.77;;
6145;SDS011;3104;50.348;7.620;2022-11-20T01:04:34;19.40;;;13.63;;
6145;SDS011;3104;50.348;7.620;2022-11-20T01:07:00;20.73;;;14.20;;
6145;SDS011;3104;50.348;7.620;2022-11-20T01:09:25;22.80;;;14.03;;
6145;SDS011;3104;50.348;7.620;2022-11-20T01:11:51;21.63;;;14.73;;
6145;SDS011;3104;50.348;7.620;2022-11-20T01:14:17;23.13;;;14.73;;
6145;SDS011;3104;50.348;7.620;2022-11-20T01:16:45;34.47;;;16.90;;
6145;SDS011;3104;50.348;7.620;2022-11-20T01:19:14;18.60;;;14.30;;
6145;SDS011;3104;50.348;7.620;2022-11-20T01:21:42;20.97;;;14.27;;
6145;SDS011;3104;50.348;7.620;2022-11-20T01:24:10;21.87;;;14.20;;
6145;SDS011;3104;50.348;7.620;2022-11-20T01:26:38;24.83;;;15.03;;
6145;SDS011;3104;50.348;7.620;2022-11-20T01:29:05;24.03;;;14.47;;
6145;SDS011;3104;50.348;7.620;2022-11-20T01:31:33;21.97;;;14.73;;
6145;SDS011;3104;50.348;7.620;2022-11-20T01:34:01;24.43;;;14.80;;
6145;SDS011;3104;50.348;7.620;2022-11-20T01:36:35;20.17;;;14.10;;
6145;SDS011;3104;50.348;7.620;2022-11-20T01:39:04;21.97;;;14.83;;
6145;SDS011;3104;50.348;7.620;2022-11-20T01:41:32;21.17;;;14.27;;
6145;SDS011;3104;50.348;7.620;2022-11-20T01:44:19;23.83;;;14.17;;
6145;SDS011;3104;50.348;7.620;2022-11-20T01:46:59;22.13;;;14.20;;
6145;SDS011;3104;50.348;7.620;2022-11-20T01:49:44;22.37;;;14.20;;
6145;SDS011;3104;50.348;7.620;2022-11-20T01:52:23;19.80;;;14.77;;
6145;SDS011;3104;50.348;7.620;2022-11-20T01:55:00;20.43;;;13.20;;
6145;SDS011;3104;50.348;7.620;2022-11-20T01:57:35;21.40;;;14.30;;
6145;SDS011;3104;50.348;7.620;2022-11-20T02:00:04;20.03;;;15.20;;
6145;SDS011;3104;50.348;7.620;2022-11-20T02:02:32;20.33;;;14.20;;
6145;SDS011;3104;50.348;7.620;2022-11-20T02:05:00;25.20;;;17.13;;
6145;SDS011;3104;50.348;7.620;2022-11-20T02:07:33;21.80;;;14.07;;
6145;SDS011;3104;50.348;7.620;2022-11-20T02:10:00;21.00;;;15.03;;
6145;SDS011;3104;50.348;7.620;2022-11-20T02:12:25;20.40;;;15.40;;
6145;SDS011;3104;50.348;7.620;2022-11-20T02:15:10;24.33;;;15.00;;
6145;SDS011;3104;50.348;7.620;2022-11-20T02:17:35;21.67;;;16.00;;
6145;SDS011;3104;50.348;7.620;2022-11-20T02:20:01;22.80;;;15.40;;
6145;SDS011;3104;50.348;7.620;2022-11-20T02:22:28;20.87;;;14.10;;
6145;SDS011;3104;50.348;7.620;2022-11-20T02:24:59;20.50;;;13.70;;
6145;SDS011;3104;50.348;7.620;2022-11-20T02:27:27;22.97;;;14.80;;
6145;SDS011;3104;50.348;7.620;2022-11-20T02:29:54;25.20;;;14.10;;
6145;SDS011;3104;50.348;7.620;2022-11-20T02:32:27;23.30;;;15.20;;
6145;SDS011;3104;50.348;7.620;2022-11-20T02:34:58;21.77;;;15.67;;
6145;SDS011;3104;50.348;7.620;2022-11-20T02:37:54;22.30;;;13.73;;
6145;SDS011;3104;50.348;7.620;2022-11-20T02:40:22;21.87;;;14.37;;
6145;SDS011;3104;50.348;7.620;2022-11-20T02:42:52;22.70;;;14.87;;
6145;SDS011;3104;50.348;7.620;2022-11-20T02:45:18;21.00;;;14.60;;
6145;SDS011;3104;50.348;7.620;2022-11-20T02:47:44;23.10;;;14.47;;
6145;SDS011;3104;50.348;7.620;2022-11-20T02:50:09;21.50;;;14.70;;
6145;SDS011;3104;50.348;7.620;2022-11-20T02:52:35;19.77;;;13.83;;
6145;SDS011;3104;50.348;7.620;2022-11-20T02:55:01;17.73;;;12.80;;
6145;SDS011;3104;50.348;7.620;2022-11-20T02:57:27;18.90;;;14.33;;
6145;SDS011;3104;50.348;7.620;2022-11-20T02:59:53;22.53;;;14.53;;
6145;SDS011;3104;50.348;7.620;2022-11-20T03:02:19;16.10;;;13.33;;
6145;SDS011;3104;50.348;7.620;2022-11-20T03:04:45;20.80;;;13.27;;
6145;SDS011;3104;50.348;7.620;2022-11-20T03:07:11;21.90;;;15.43;;
6145;SDS011;3104;50.348;7.620;2022-11-20T03:09:36;19.97;;;13.77;;
6145;SDS011;3104;50.348;7.620;2022-11-20T03:12:02;20.77;;;14.47;;
6145;SDS011;3104;50.348;7.620;2022-11-20T03:14:28;18.60;;;13.80;;
6145;SDS011;3104;50.348;7.620;2022-11-20T03:16:53;21.90;;;14.57;;
6145;SDS011;3104;50.348;7.620;2022-11-20T03:19:19;21.70;;;14.93;;
6145;SDS011;3104;50.348;7.620;2022-11-20T03:21:45;22.43;;;15.07;;
6145;SDS011;3104;50.348;7.620;2022-11-20T03:24:11;22.37;;;15.60;;
6145;SDS011;3104;50.348;7.620;2022-11-20T03:26:37;22.30;;;15.13;;
6145;SDS011;3104;50.348;7.620;2022-11-20T03:29:04;24.37;;;14.83;;
6145;SDS011;3104;50.348;7.620;2022-11-20T03:31:31;24.23;;;15.07;;
6145;SDS011;3104;50.348;7.620;2022-11-20T03:33:58;26.70;;;16.43;;
6145;SDS011;3104;50.348;7.620;2022-11-20T03:36:25;22.30;;;14.77;;
6145;SDS011;3104;50.348;7.620;2022-11-20T03:38:52;21.13;;;14.50;;
6145;SDS011;3104;50.348;7.620;2022-11-20T03:41:20;21.90;;;14.33;;
6145;SDS011;3104;50.348;7.620;2022-11-20T03:44:09;20.17;;;14.97;;
6145;SDS011;3104;50.348;7.620;2022-11-20T03:46:34;21.33;;;14.90;;
6145;SDS011;3104;50.348;7.620;2022-11-20T03:49:00;21.90;;;16.10;;
6145;SDS011;3104;50.348;7.620;2022-11-20T03:51:27;22.00;;;15.13;;
6145;SDS011;3104;50.348;7.620;2022-11-20T03:53:55;24.10;;;17.30;;
6145;SDS011;3104;50.348;7.620;2022-11-20T03:56:23;25.43;;;15.77;;
6145;SDS011;3104;50.348;7.620;2022-11-20T03:58:56;21.50;;;14.70;;
6145;SDS011;3104;50.348;7.620;2022-11-20T04:01:23;23.93;;;14.57;;
6145;SDS011;3104;50.348;7.620;2022-11-20T04:03:51;20.63;;;15.17;;
6145;SDS011;3104;50.348;7.620;2022-11-20T04:06:19;23.40;;;14.80;;
6145;SDS011;3104;50.348;7.620;2022-11-20T04:08:46;24.97;;;15.37;;
6145;SDS011;3104;50.348;7.620;2022-11-20T04:13:45;23.00;;;15.40;;
6145;SDS011;3104;50.348;7.620;2022-11-20T04:16:12;26.63;;;15.90;;
6145;SDS011;3104;50.348;7.620;2022-11-20T04:18:37;26.50;;;15.63;;
6145;SDS011;3104;50.348;7.620;2022-11-20T04:21:03;24.87;;;15.87;;
6145;SDS011;3104;50.348;7.620;2022-11-20T04:23:29;30.30;;;17.47;;
6145;SDS011;3104;50.348;7.620;2022-11-20T04:26:00;25.27;;;14.07;;
6145;SDS011;3104;50.348;7.620;2022-11-20T04:28:35;20.50;;;13.90;;
6145;SDS011;3104;50.348;7.620;2022-11-20T04:31:05;20.70;;;13.57;;
6145;SDS011;3104;50.348;7.620;2022-11-20T04:33:38;22.87;;;14.70;;
6145;SDS011;3104;50.348;7.620;2022-11-20T04:36:05;19.07;;;13.87;;
6145;SDS011;3104;50.348;7.620;2022-11-20T04:38:35;25.37;;;14.67;;
6145;SDS011;3104;50.348;7.620;2022-11-20T04:41:01;23.77;;;13.83;;
6145;SDS011;3104;50.348;7.620;2022-11-20T04:43:30;23.67;;;14.23;;
6145;SDS011;3104;50.348;7.620;2022-11-20T04:45:56;19.50;;;13.63;;
6145;SDS011;3104;50.348;7.620;2022-11-20T04:48:23;20.60;;;14.00;;
6145;SDS011;3104;50.348;7.620;2022-11-20T04:50:49;21.67;;;13.93;;
6145;SDS011;3104;50.348;7.620;2022-11-20T04:53:15;19.73;;;13.03;;
6145;SDS011;3104;50.348;7.620;2022-11-20T04:55:41;22.60;;;14.10;;
6145;SDS011;3104;50.348;7.620;2022-11-20T04:58:07;23.07;;;14.30;;
6145;SDS011;3104;50.348;7.620;2022-11-20T05:00:33;27.57;;;16.00;;
6145;SDS011;3104;50.348;7.620;2022-11-20T05:02:59;21.90;;;14.60;;
6145;SDS011;3104;50.348;7.620;2022-11-20T05:05:24;19.00;;;12.80;;
6145;SDS011;3104;50.348;7.620;2022-11-20T05:07:50;20.27;;;14.80;;
6145;SDS011;3104;50.348;7.620;2022-11-20T05:10:16;21.13;;;14.00;;
6145;SDS011;3104;50.348;7.620;2022-11-20T05:12:41;20.27;;;13.63;;
6145;SDS011;3104;50.348;7.620;2022-11-20T05:15:07;19.03;;;13.47;;
6145;SDS011;3104;50.348;7.620;2022-11-20T05:17:33;20.93;;;13.60;;
6145;SDS011;3104;50.348;7.620;2022-11-20T05:19:58;24.30;;;14.77;;
6145;SDS011;3104;50.348;7.620;2022-11-20T05:22:24;21.20;;;16.40;;
6145;SDS011;3104;50.348;7.620;2022-11-20T05:24:50;21.93;;;15.30;;
6145;SDS011;3104;50.348;7.620;2022-11-20T05:27:15;22.57;;;15.27;;
6145;SDS011;3104;50.348;7.620;2022-11-20T05:29:41;23.03;;;15.57;;
6145;SDS011;3104;50.348;7.620;2022-11-20T05:32:07;24.20;;;14.93;;
6145;SDS011;3104;50.348;7.620;2022-11-20T05:34:34;25.30;;;15.77;;
6145;SDS011;3104;50.348;7.620;2022-11-20T05:37:00;21.40;;;14.10;;
6145;SDS011;3104;50.348;7.620;2022-11-20T05:39:26;23.70;;;15.60;;
6145;SDS011;3104;50.348;7.620;2022-11-20T05:41:52;30.47;;;20.97;;
6145;SDS011;3104;50.348;7.620;2022-11-20T05:44:37;29.70;;;20.70;;
6145;SDS011;3104;50.348;7.620;2022-11-20T05:47:03;26.23;;;16.43;;
6145;SDS011;3104;50.348;7.620;2022-11-20T05:49:28;27.43;;;16.20;;
6145;SDS011;3104;50.348;7.620;2022-11-20T05:51:54;24.20;;;15.73;;
6145;SDS011;3104;50.348;7.620;2022-11-20T05:54:20;21.40;;;15.23;;
6145;SDS011;3104;50.348;7.620;2022-11-20T05:56:45;27.50;;;15.10;;
6145;SDS011;3104;50.348;7.620;2022-11-20T05:59:11;21.73;;;14.63;;
6145;SDS011;3104;50.348;7.620;2022-11-20T06:01:36;24.73;;;15.03;;
6145;SDS011;3104;50.348;7.620;2022-11-20T06:04:02;25.73;;;15.17;;
6145;SDS011;3104;50.348;7.620;2022-11-20T06:06:27;24.30;;;16.10;;
6145;SDS011;3104;50.348;7.620;2022-11-20T06:08:53;20.70;;;13.20;;
6145;SDS011;3104;50.348;7.620;2022-11-20T06:11:20;23.57;;;15.00;;
6145;SDS011;3104;50.348;7.620;2022-11-20T06:13:46;25.03;;;15.07;;
6145;SDS011;3104;50.348;7.620;2022-11-20T06:16:13;23.50;;;15.47;;
6145;SDS011;3104;50.348;7.620;2022-11-20T06:18:40;20.33;;;14.30;;
6145;SDS011;3104;50.348;7.620;2022-11-20T06:21:07;20.50;;;13.17;;
6145;SDS011;3104;50.348;7.620;2022-11-20T06:23:44;22.60;;;14.53;;
6145;SDS011;3104;50.348;7.620;2022-11-20T06:26:11;22.47;;;14.37;;
6145;SDS011;3104;50.348;7.620;2022-11-20T06:28:38;23.80;;;14.93;;
6145;SDS011;3104;50.348;7.620;2022-11-20T06:31:04;21.83;;;14.57;;
6145;SDS011;3104;50.348;7.620;2022-11-20T06:33:30;25.07;;;14.50;;
6145;SDS011;3104;50.348;7.620;2022-11-20T06:35:57;21.43;;;14.20;;
6145;SDS011;3104;50.348;7.620;2022-11-20T06:38:27;23.57;;;15.40;;
6145;SDS011;3104;50.348;7.620;2022-11-20T06:40:53;21.00;;;14.17;;
6145;SDS011;3104;50.348;7.620;2022-11-20T06:43:19;22.83;;;14.00;;
6145;SDS011;3104;50.348;7.620;2022-11-20T06:45:44;25.10;;;16.10;;
6145;SDS011;3104;50.348;7.620;2022-11-20T06:48:10;23.60;;;14.90;;
6145;SDS011;3104;50.348;7.620;2022-11-20T06:50:36;20.87;;;14.40;;
6145;SDS011;3104;50.348;7.620;2022-11-20T06:53:02;25.53;;;15.90;;
6145;SDS011;3104;50.348;7.620;2022-11-20T06:55:29;21.97;;;14.10;;
6145;SDS011;3104;50.348;7.620;2022-11-20T06:57:55;22.07;;;14.57;;
6145;SDS011;3104;50.348;7.620;2022-11-20T07:00:21;22.70;;;13.50;;
6145;SDS011;3104;50.348;7.620;2022-11-20T07:02:47;22.90;;;14.97;;
6145;SDS011;3104;50.348;7.620;2022-11-20T07:05:12;21.57;;;13.67;;
6145;SDS011;3104;50.348;7.620;2022-11-20T07:07:38;20.57;;;14.27;;
6145;SDS011;3104;50.348;7.620;2022-11-20T07:10:04;21.47;;;13.50;;
6145;SDS011;3104;50.348;7.620;2022-11-20T07:12:30;28.53;;;15.20;;
6145;SDS011;3104;50.348;7.620;2022-11-20T07:14:55;25.73;;;14.17;;
6145;SDS011;3104;50.348;7.620;2022-11-20T07:17:21;24.27;;;14.90;;
6145;SDS011;3104;50.348;7.620;2022-11-20T07:19:47;22.37;;;13.97;;
6145;SDS011;3104;50.348;7.620;2022-11-20T07:22:13;24.60;;;14.07;;
6145;SDS011;3104;50.348;7.620;2022-11-20T07:24:38;24.70;;;15.37;;
6145;SDS011;3104;50.348;7.620;2022-11-20T07:27:04;24.13;;;13.87;;
6145;SDS011;3104;50.348;7.620;2022-11-20T07:29:30;23.70;;;13.00;;
6145;SDS011;3104;50.348;7.620;2022-11-20T07:31:56;20.97;;;13.37;;
6145;SDS011;3104;50.348;7.620;2022-11-20T07:34:21;25.33;;;14.30;;
6145;SDS011;3104;50.348;7.620;2022-11-20T07:36:47;24.03;;;14.77;;
6145;SDS011;3104;50.348;7.620;2022-11-20T07:39:13;26.57;;;15.93;;
6145;SDS011;3104;50.348;7.620;2022-11-20T07:41:38;26.17;;;15.13;;
6145;SDS011;3104;50.348;7.620;2022-11-20T07:44:04;23.40;;;14.80;;
6145;SDS011;3104;50.348;7.620;2022-11-20T07:46:30;25.30;;;13.97;;
6145;SDS011;3104;50.348;7.620;2022-11-20T07:48:56;28.90;;;16.40;;
6145;SDS011;3104;50.348;7.620;2022-11-20T07:51:22;26.33;;;16.40;;
6145;SDS011;3104;50.348;7.620;2022-11-20T07:53:52;29.87;;;18.10;;
6145;SDS011;3104;50.348;7.620;2022-11-20T07:56:18;30.33;;;17.30;;
6145;SDS011;3104;50.348;7.620;2022-11-20T07:58:43;26.37;;;18.40;;
6145;SDS011;3104;50.348;7.620;2022-11-20T08:01:09;25.47;;;15.23;;
6145;SDS011;3104;50.348;7.620;2022-11-20T08:03:35;27.40;;;16.47;;
6145;SDS011;3104;50.348;7.620;2022-11-20T08:06:04;22.57;;;14.77;;
6145;SDS011;3104;50.348;7.620;2022-11-20T08:08:30;25.83;;;16.60;;
6145;SDS011;3104;50.348;7.620;2022-11-20T08:10:56;20.93;;;15.90;;
6145;SDS011;3104;50.348;7.620;2022-11-20T08:13:42;25.20;;;15.57;;
6145;SDS011;3104;50.348;7.620;2022-11-20T08:16:26;21.63;;;14.70;;
6145;SDS011;3104;50.348;7.620;2022-11-20T08:18:53;32.93;;;16.90;;
6145;SDS011;3104;50.348;7.620;2022-11-20T08:21:19;22.27;;;14.20;;
6145;SDS011;3104;50.348;7.620;2022-11-20T08:23:44;24.37;;;15.93;;
6145;SDS011;3104;50.348;7.620;2022-11-20T08:26:10;24.83;;;16.80;;
6145;SDS011;3104;50.348;7.620;2022-11-20T08:28:36;25.33;;;15.53;;
6145;SDS011;3104;50.348;7.620;2022-11-20T08:31:02;28.97;;;17.77;;
6145;SDS011;3104;50.348;7.620;2022-11-20T08:33:29;24.40;;;16.47;;
6145;SDS011;3104;50.348;7.620;2022-11-20T08:36:01;25.50;;;15.50;;
6145;SDS011;3104;50.348;7.620;2022-11-20T08:38:28;25.30;;;15.60;;
6145;SDS011;3104;50.348;7.620;2022-11-20T08:40:58;26.10;;;15.07;;
6145;SDS011;3104;50.348;7.620;2022-11-20T08:43:43;27.93;;;16.33;;
6145;SDS011;3104;50.348;7.620;2022-11-20T08:46:09;24.53;;;16.10;;
6145;SDS011;3104;50.348;7.620;2022-11-20T08:48:35;27.07;;;15.57;;
6145;SDS011;3104;50.348;7.620;2022-11-20T08:51:01;26.33;;;16.80;;
6145;SDS011;3104;50.348;7.620;2022-11-20T08:53:29;23.70;;;14.83;;
6145;SDS011;3104;50.348;7.620;2022-11-20T08:55:56;34.27;;;20.70;;
6145;SDS011;3104;50.348;7.620;2022-11-20T08:58:22;23.50;;;14.87;;
6145;SDS011;3104;50.348;7.620;2022-11-20T09:00:48;20.80;;;15.20;;
6145;SDS011;3104;50.348;7.620;2022-11-20T09:03:14;18.30;;;13.43;;
6145;SDS011;3104;50.348;7.620;2022-11-20T09:05:40;21.70;;;14.47;;
6145;SDS011;3104;50.348;7.620;2022-11-20T09:08:05;23.57;;;15.40;;
6145;SDS011;3104;50.348;7.620;2022-11-20T09:10:31;18.93;;;13.03;;
6145;SDS011;3104;50.348;7.620;2022-11-20T09:12:57;23.70;;;14.70;;
6145;SDS011;3104;50.348;7.620;2022-11-20T09:15:24;20.17;;;13.83;;
6145;SDS011;3104;50.348;7.620;2022-11-20T09:17:58;23.90;;;14.50;;
6145;SDS011;3104;50.348;7.620;2022-11-20T09:20:25;21.30;;;14.50;;
6145;SDS011;3104;50.348;7.620;2022-11-20T09:22:53;23.87;;;14.83;;
6145;SDS011;3104;50.348;7.620;2022-11-20T09:25:19;23.57;;;15.23;;
6145;SDS011;3104;50.348;7.620;2022-11-20T09:27:45;17.73;;;13.00;;
6145;SDS011;3104;50.348;7.620;2022-11-20T09:30:12;23.90;;;14.90;;
6145;SDS011;3104;50.348;7.620;2022-11-20T09:32:44;20.23;;;13.57;;
6145;SDS011;3104;50.348;7.620;2022-11-20T09:35:10;23.60;;;15.10;;
6145;SDS011;3104;50.348;7.620;2022-11-20T09:37:37;17.67;;;13.00;;
6145;SDS011;3104;50.348;7.620;2022-11-20T09:40:04;21.97;;;14.13;;
6145;SDS011;3104;50.348;7.620;2022-11-20T09:45:22;21.87;;;14.10;;
6145;SDS011;3104;50.348;7.620;2022-11-20T09:50:43;23.40;;;14.37;;
6145;SDS011;3104;50.348;7.620;2022-11-20T09:56:00;20.43;;;12.73;;
6145;SDS011;3104;50.348;7.620;2022-11-20T09:58:32;22.63;;;15.10;;
6145;SDS011;3104;50.348;7.620;2022-11-20T10:01:12;26.43;;;15.30;;
6145;SDS011;3104;50.348;7.620;2022-11-20T10:03:50;20.17;;;13.47;;
6145;SDS011;3104;50.348;7.620;2022-11-20T10:06:37;18.50;;;13.30;;
6145;SDS011;3104;50.348;7.620;2022-11-20T10:09:29;21.33;;;13.87;;
6145;SDS011;3104;50.348;7.620;2022-11-20T10:12:06;19.13;;;13.13;;
6145;SDS011;3104;50.348;7.620;2022-11-20T10:14:59;20.37;;;14.00;;
6145;SDS011;3104;50.348;7.620;2022-11-20T10:20:45;20.67;;;14.07;;
6145;SDS011;3104;50.348;7.620;2022-11-20T10:26:22;23.33;;;13.10;;
6145;SDS011;3104;50.348;7.620;2022-11-20T10:31:37;16.17;;;11.77;;
6145;SDS011;3104;50.348;7.620;2022-11-20T10:34:06;16.53;;;11.90;;
6145;SDS011;3104;50.348;7.620;2022-11-20T10:39:31;19.37;;;11.37;;
6145;SDS011;3104;50.348;7.620;2022-11-20T10:42:00;15.23;;;10.20;;
6145;SDS011;3104;50.348;7.620;2022-11-20T10:44:27;14.77;;;10.40;;
6145;SDS011;3104;50.348;7.620;2022-11-20T10:47:14;10.90;;;9.27;;
6145;SDS011;3104;50.348;7.620;2022-11-20T10:49:42;14.17;;;10.73;;
6145;SDS011;3104;50.348;7.620;2022-11-20T10:55:05;15.00;;;10.47;;
6145;SDS011;3104;50.348;7.620;2022-11-20T10:58:00;11.93;;;9.47;;
6145;SDS011;3104;50.348;7.620;2022-11-20T11:00:35;14.30;;;10.17;;
6145;SDS011;3104;50.348;7.620;2022-11-20T11:03:02;12.33;;;9.63;;
6145;SDS011;3104;50.348;7.620;2022-11-20T11:08:14;12.10;;;8.70;;
6145;SDS011;3104;50.348;7.620;2022-11-20T11:13:23;22.30;;;17.57;;
6145;SDS011;3104;50.348;7.620;2022-11-20T11:15:53;12.83;;;10.43;;
6145;SDS011;3104;50.348;7.620;2022-11-20T11:18:23;10.07;;;7.70;;
6145;SDS011;3104;50.348;7.620;2022-11-20T11:20:52;15.50;;;9.40;;
6145;SDS011;3104;50.348;7.620;2022-11-20T11:26:18;11.40;;;8.00;;
6145;SDS011;3104;50.348;7.620;2022-11-20T11:28:53;12.30;;;9.37;;
6145;SDS011;3104;50.348;7.620;2022-11-20T11:31:30;13.60;;;9.20;;
6145;SDS011;3104;50.348;7.620;2022-11-20T11:36:38;12.67;;;10.20;;
6145;SDS011;3104;50.348;7.620;2022-11-20T11:39:04;12.60;;;10.10;;
6145;SDS011;3104;50.348;7.620;2022-11-20T11:41:35;16.00;;;11.07;;
6145;SDS011;3104;50.348;7.620;2022-11-20T11:47:17;11.53;;;9.30;;
6145;SDS011;3104;50.348;7.620;2022-11-20T11:49:48;15.90;;;10.90;;
6145;SDS011;3104;50.348;7.620;2022-11-20T11:52:18;14.30;;;10.87;;
6145;SDS011;3104;50.348;7.620;2022-11-20T11:57:20;14.17;;;10.83;;
6145;SDS011;3104;50.348;7.620;2022-11-20T12:02:36;14.70;;;9.43;;
6145;SDS011;3104;50.348;7.620;2022-11-20T12:05:12;14.93;;;10.27;;
6145;SDS011;3104;50.348;7.620;2022-11-20T12:07:45;12.03;;;9.70;;
6145;SDS011;3104;50.348;7.620;2022-11-20T12:11:23;13.90;;;10.83;;
6145;SDS011;3104;50.348;7.620;2022-11-20T12:16:09;13.87;;;10.07;;
6145;SDS011;3104;50.348;7.620;2022-11-20T12:18:38;12.03;;;9.57;;
6145;SDS011;3104;50.348;7.620;2022-11-20T12:21:17;12.33;;;10.03;;
6145;SDS011;3104;50.348;7.620;2022-11-20T12:29:12;15.97;;;11.10;;
6145;SDS011;3104;50.348;7.620;2022-11-20T12:32:06;15.77;;;12.30;;
6145;SDS011;3104;50.348;7.620;2022-11-20T12:39:50;17.80;;;11.77;;
6145;SDS011;3104;50.348;7.620;2022-11-20T12:42:41;13.10;;;10.50;;
6145;SDS011;3104;50.348;7.620;2022-11-20T12:45:51;13.87;;;10.40;;
6145;SDS011;3104;50.348;7.620;2022-11-20T12:48:38;15.53;;;11.53;;
6145;SDS011;3104;50.348;7.620;2022-11-20T12:56:51;17.97;;;12.23;;
6145;SDS011;3104;50.348;7.620;2022-11-20T13:07:33;17.37;;;11.93;;
6145;SDS011;3104;50.348;7.620;2022-11-20T13:10:01;18.40;;;12.83;;
6145;SDS011;3104;50.348;7.620;2022-11-20T13:12:40;12.17;;;10.83;;
6145;SDS011;3104;50.348;7.620;2022-11-20T13:17:58;13.07;;;10.40;;
6145;SDS011;3104;50.348;7.620;2022-11-20T13:20:25;16.43;;;11.67;;
6145;SDS011;3104;50.348;7.620;2022-11-20T13:22:52;25.80;;;19.17;;
6145;SDS011;3104;50.348;7.620;2022-11-20T13:28:27;16.63;;;13.30;;
6145;SDS011;3104;50.348;7.620;2022-11-20T13:30:54;17.07;;;13.47;;
6145;SDS011;3104;50.348;7.620;2022-11-20T13:33:31;18.57;;;15.23;;
6145;SDS011;3104;50.348;7.620;2022-11-20T13:36:03;16.70;;;14.30;;
6145;SDS011;3104;50.348;7.620;2022-11-20T13:38:43;14.97;;;12.60;;
6145;SDS011;3104;50.348;7.620;2022-11-20T13:41:11;14.57;;;11.60;;
6145;SDS011;3104;50.348;7.620;2022-11-20T13:43:54;12.80;;;11.03;;
6145;SDS011;3104;50.348;7.620;2022-11-20T13:46:23;12.53;;;11.13;;
6145;SDS011;3104;50.348;7.620;2022-11-20T13:49:08;13.97;;;12.40;;
6145;SDS011;3104;50.348;7.620;2022-11-20T13:51:41;12.10;;;10.40;;
6145;SDS011;3104;50.348;7.620;2022-11-20T13:59:12;13.13;;;9.60;;
6145;SDS011;3104;50.348;7.620;2022-11-20T14:01:55;11.00;;;7.80;;
6145;SDS011;3104;50.348;7.620;2022-11-20T14:04:25;9.87;;;8.17;;
6145;SDS011;3104;50.348;7.620;2022-11-20T14:06:54;6.70;;;6.00;;
6145;SDS011;3104;50.348;7.620;2022-11-20T14:11:55;6.47;;;5.53;;
6145;SDS011;3104;50.348;7.620;2022-11-20T14:14:23;6.53;;;5.50;;
6145;SDS011;3104;50.348;7.620;2022-11-20T14:17:09;5.97;;;4.73;;
6145;SDS011;3104;50.348;7.620;2022-11-20T14:19:42;5.33;;;4.73;;
6145;SDS011;3104;50.348;7.620;2022-11-20T14:24:59;6.27;;;4.23;;
6145;SDS011;3104;50.348;7.620;2022-11-20T14:27:50;6.63;;;3.70;;
6145;SDS011;3104;50.348;7.620;2022-11-20T14:30:22;5.03;;;3.10;;
6145;SDS011;3104;50.348;7.620;2022-11-20T14:32:50;6.03;;;3.23;;
6145;SDS011;3104;50.348;7.620;2022-11-20T14:35:34;4.47;;;3.27;;
6145;SDS011;3104;50.348;7.620;2022-11-20T14:38:02;4.30;;;3.13;;
6145;SDS011;3104;50.348;7.620;2022-11-20T14:40:29;5.70;;;4.90;;
6145;SDS011;3104;50.348;7.620;2022-11-20T14:43:00;3.97;;;3.53;;
6145;SDS011;3104;50.348;7.620;2022-11-20T14:45:27;4.70;;;2.90;;
6145;SDS011;3104;50.348;7.620;2022-11-20T14:47:53;4.37;;;2.87;;
6145;SDS011;3104;50.348;7.620;2022-11-20T14:50:25;2.73;;;2.47;;
6145;SDS011;3104;50.348;7.620;2022-11-20T14:52:58;4.23;;;2.50;;
6145;SDS011;3104;50.348;7.620;2022-11-20T14:55:26;2.77;;;2.13;;
6145;SDS011;3104;50.348;7.620;2022-11-20T14:57:57;5.93;;;2.63;;
6145;SDS011;3104;50.348;7.620;2022-11-20T15:00:28;6.37;;;2.43;;
6145;SDS011;3104;50.348;7.620;2022-11-20T15:02:56;2.40;;;2.07;;
6145;SDS011;3104;50.348;7.620;2022-11-20T15:05:37;4.10;;;2.50;;
6145;SDS011;3104;50.348;7.620;2022-11-20T15:08:12;5.07;;;3.10;;
6145;SDS011;3104;50.348;7.620;2022-11-20T15:10:39;3.47;;;2.43;;
6145;SDS011;3104;50.348;7.620;2022-11-20T15:13:12;4.37;;;2.50;;
6145;SDS011;3104;50.348;7.620;2022-11-20T15:18:14;3.80;;;2.50;;
6145;SDS011;3104;50.348;7.620;2022-11-20T15:20:42;4.93;;;2.53;;
6145;SDS011;3104;50.348;7.620;2022-11-20T15:23:10;3.47;;;2.47;;
6145;SDS011;3104;50.348;7.620;2022-11-20T15:25:37;5.70;;;2.13;;
6145;SDS011;3104;50.348;7.620;2022-11-20T15:28:04;2.37;;;1.80;;
6145;SDS011;3104;50.348;7.620;2022-11-20T15:30:38;6.50;;;2.90;;
6145;SDS011;3104;50.348;7.620;2022-11-20T15:33:04;2.40;;;2.13;;
6145;SDS011;3104;50.348;7.620;2022-11-20T15:35:32;2.20;;;2.00;;
6145;SDS011;3104;50.348;7.620;2022-11-20T15:38:06;5.30;;;3.67;;
6145;SDS011;3104;50.348;7.620;2022-11-20T15:40:32;5.00;;;3.80;;
6145;SDS011;3104;50.348;7.620;2022-11-20T15:42:58;4.23;;;3.07;;
6145;SDS011;3104;50.348;7.620;2022-11-20T15:45:34;4.00;;;2.50;;
6145;SDS011;3104;50.348;7.620;2022-11-20T15:48:09;2.20;;;1.63;;
6145;SDS011;3104;50.348;7.620;2022-11-20T15:51:02;3.13;;;1.10;;
6145;SDS011;3104;50.348;7.620;2022-11-20T15:53:49;1.77;;;1.23;;
6145;SDS011;3104;50.348;7.620;2022-11-20T15:56:14;3.17;;;1.47;;
6145;SDS011;3104;50.348;7.620;2022-11-20T15:58:40;2.07;;;1.53;;
6145;SDS011;3104;50.348;7.620;2022-11-20T16:01:13;4.87;;;2.60;;
6145;SDS011;3104;50.348;7.620;2022-11-20T16:03:43;2.80;;;2.43;;
6145;SDS011;3104;50.348;7.620;2022-11-20T16:06:10;3.50;;;2.30;;
6145;SDS011;3104;50.348;7.620;2022-11-20T16:08:36;4.93;;;2.73;;
6145;SDS011;3104;50.348;7.620;2022-11-20T16:11:02;5.70;;;2.50;;
6145;SDS011;3104;50.348;7.620;2022-11-20T16:13:30;2.13;;;1.90;;
6145;SDS011;3104;50.348;7.620;2022-11-20T16:16:26;3.90;;;2.97;;
6145;SDS011;3104;50.348;7.620;2022-11-20T16:19:02;4.00;;;2.33;;
6145;SDS011;3104;50.348;7.620;2022-11-20T16:21:28;3.90;;;2.13;;
6145;SDS011;3104;50.348;7.620;2022-11-20T16:24:03;2.63;;;1.90;;
6145;SDS011;3104;50.348;7.620;2022-11-20T16:26:30;3.53;;;1.90;;
6145;SDS011;3104;50.348;7.620;2022-11-20T16:28:58;4.30;;;2.13;;
6145;SDS011;3104;50.348;7.620;2022-11-20T16:31:24;7.30;;;3.97;;
6145;SDS011;3104;50.348;7.620;2022-11-20T16:33:50;8.43;;;2.63;;
6145;SDS011;3104;50.348;7.620;2022-11-20T16:36:20;2.87;;;2.30;;
6145;SDS011;3104;50.348;7.620;2022-11-20T16:38:51;3.20;;;2.20;;